Time;durP1;ratioP1;P1;durP2;ratioP2;P2;SDS_P1;SDS_P2;PMS_P1;PMS_P2;Temp;Humidity;BMP_temperature;BMP_pressure;BME280_temperature;BME280_humidity;BME280_pressure;Samples;Min_cycle;Max_cycle;Signal;HPM_P1;HPM_P2
2022/10/10 00:02:03;;;;;;;2.22;1.50;;;9.10;99.90;;;;;;5025837;28;20030;-76
2022/10/10 00:04:29;;;;;;;2.38;1.58;;;9.20;99.90;;;;;;5025763;28;20092;-76
2022/10/10 00:06:54;;;;;;;4.72;1.35;;;9.20;99.90;;;;;;5025913;28;20094;-75
2022/10/10 00:09:20;;;;;;;3.67;1.55;;;9.10;99.90;;;;;;5025354;28;20049;-75
2022/10/10 00:11:45;;;;;;;1.40;1.10;;;9.10;99.90;;;;;;5026573;28;20038;-74
2022/10/10 00:14:11;;;;;;;1.88;1.35;;;9.20;99.90;;;;;;5009341;28;20087;-75
2022/10/10 00:16:37;;;;;;;2.47;1.40;;;9.20;99.90;;;;;;4992994;28;20500;-75
2022/10/10 00:19:02;;;;;;;4.43;1.70;;;9.20;99.90;;;;;;5008596;28;20512;-75
2022/10/10 00:21:28;;;;;;;3.25;1.33;;;9.20;99.90;;;;;;5008921;28;20516;-75
2022/10/10 00:23:53;;;;;;;3.90;1.40;;;9.30;99.90;;;;;;5025706;28;20064;-76
2022/10/10 00:26:19;;;;;;;1.52;1.20;;;9.20;99.90;;;;;;5009587;28;20026;-75
2022/10/10 00:28:44;;;;;;;1.95;1.73;;;9.30;99.90;;;;;;5026137;28;20047;-75
2022/10/10 00:31:10;;;;;;;2.70;1.40;;;9.20;99.90;;;;;;4992512;28;20087;-76
2022/10/10 00:33:36;;;;;;;2.72;1.60;;;9.20;99.90;;;;;;5008857;28;20033;-75
2022/10/10 00:36:01;;;;;;;3.75;1.73;;;9.20;99.90;;;;;;4992532;28;20117;-75
2022/10/10 00:38:27;;;;;;;3.15;1.48;;;9.20;99.90;;;;;;5025208;28;20066;-75
2022/10/10 00:40:54;;;;;;;2.90;1.38;;;9.10;99.90;;;;;;5008805;28;20051;-75
2022/10/10 00:43:20;;;;;;;3.28;1.70;;;9.10;99.90;;;;;;4997010;28;20029;-76
2022/10/10 00:45:46;;;;;;;2.42;1.60;;;9.10;99.90;;;;;;5026202;28;20041;-75
2022/10/10 00:48:30;;;;;;;3.30;1.50;;;9.10;99.90;;;;;;5007864;28;20489;-75
2022/10/10 00:50:55;;;;;;;2.03;1.10;;;9.10;99.90;;;;;;5010162;28;20038;-76
2022/10/10 00:53:22;;;;;;;3.47;1.67;;;9.10;99.90;;;;;;5026747;28;20161;-75
2022/10/10 00:55:48;;;;;;;1.92;1.20;;;9.20;99.90;;;;;;5008923;28;20060;-75
2022/10/10 00:58:13;;;;;;;2.15;1.52;;;9.10;99.90;;;;;;5009092;28;20053;-75
2022/10/10 01:00:39;;;;;;;2.10;1.30;;;9.10;99.90;;;;;;5008112;28;20437;-75
2022/10/10 01:03:04;;;;;;;3.08;1.60;;;9.10;99.90;;;;;;5008900;28;20461;-76
2022/10/10 01:05:30;;;;;;;3.03;1.23;;;9.20;99.90;;;;;;5023895;28;20614;-75
2022/10/10 01:07:56;;;;;;;2.95;1.35;;;9.20;99.90;;;;;;5008296;28;20563;-76
2022/10/10 01:10:22;;;;;;;2.35;1.67;;;9.10;99.90;;;;;;5011630;28;20087;-75
2022/10/10 01:13:10;;;;;;;3.85;1.52;;;9.20;99.90;;;;;;5008700;28;20091;-76
2022/10/10 01:15:54;;;;;;;2.88;1.48;;;9.20;99.90;;;;;;5012617;28;20073;-75
2022/10/10 01:18:53;;;;;;;2.95;1.33;;;9.20;99.90;;;;;;5006672;28;20482;-75
2022/10/10 01:21:26;;;;;;;2.05;1.02;;;9.20;99.90;;;;;;5024443;28;20030;-76
2022/10/10 01:24:00;;;;;;;2.38;1.58;;;9.20;99.90;;;;;;5024730;28;20200;-75
2022/10/10 01:26:52;;;;;;;1.45;1.10;;;9.20;99.90;;;;;;5025827;28;20029;-75
2022/10/10 01:29:24;;;;;;;2.83;1.10;;;9.20;99.90;;;;;;5026171;28;20030;-75
2022/10/10 01:31:52;;;;;;;1.63;1.23;;;9.40;99.90;;;;;;5022971;28;20034;-76
2022/10/10 01:34:18;;;;;;;3.95;1.70;;;9.30;99.90;;;;;;5009120;28;20480;-75
2022/10/10 01:36:58;;;;;;;4.35;1.60;;;9.30;99.90;;;;;;5025425;28;20026;-76
2022/10/10 01:39:59;;;;;;;1.90;1.20;;;9.30;99.90;;;;;;4992177;28;20425;-76
2022/10/10 01:42:29;;;;;;;2.83;1.55;;;9.30;99.90;;;;;;4989826;28;20037;-75
2022/10/10 01:44:55;;;;;;;4.80;1.33;;;9.40;99.90;;;;;;5007954;28;20504;-75
2022/10/10 01:47:21;;;;;;;4.72;1.45;;;9.30;99.90;;;;;;5007978;28;20035;-75
2022/10/10 01:49:46;;;;;;;1.67;1.55;;;9.40;99.90;;;;;;5008492;28;20033;-75
2022/10/10 01:52:12;;;;;;;2.33;1.25;;;9.30;99.90;;;;;;5007438;28;20033;-76
2022/10/10 01:54:59;;;;;;;2.30;1.35;;;9.30;99.90;;;;;;5023534;28;20029;-75
2022/10/10 01:57:29;;;;;;;2.83;1.20;;;9.40;99.90;;;;;;5025368;28;20033;-75
2022/10/10 02:00:03;;;;;;;1.98;1.40;;;9.40;99.90;;;;;;5024173;28;20041;-75
2022/10/10 02:02:48;;;;;;;1.77;1.20;;;9.40;99.90;;;;;;5023649;28;20500;-75
2022/10/10 02:05:20;;;;;;;3.53;1.95;;;9.50;99.90;;;;;;5005800;28;20034;-75
2022/10/10 02:07:52;;;;;;;3.28;1.48;;;9.40;99.90;;;;;;5025543;28;20174;-75
2022/10/10 02:10:21;;;;;;;1.83;1.23;;;9.40;99.90;;;;;;5023818;28;20091;-75
2022/10/10 02:12:46;;;;;;;3.30;1.52;;;9.40;99.90;;;;;;5006677;28;20037;-75
2022/10/10 02:15:13;;;;;;;2.20;1.35;;;9.50;99.90;;;;;;4991341;28;20045;-75
2022/10/10 02:17:39;;;;;;;2.10;1.10;;;9.50;99.90;;;;;;5006343;28;20037;-75
2022/10/10 02:20:07;;;;;;;3.13;1.50;;;9.50;99.90;;;;;;5005135;28;20125;-75
2022/10/10 02:22:32;;;;;;;6.75;1.55;;;9.50;99.90;;;;;;5006037;28;20032;-75
2022/10/10 02:24:58;;;;;;;2.17;1.27;;;9.60;99.90;;;;;;4990837;28;20136;-75
2022/10/10 02:27:37;;;;;;;7.22;2.00;;;9.60;99.90;;;;;;5006545;28;20319;-75
2022/10/10 02:30:03;;;;;;;4.57;1.42;;;9.60;99.90;;;;;;5005878;28;20037;-75
2022/10/10 02:32:35;;;;;;;2.75;1.60;;;9.50;99.90;;;;;;5007337;28;20052;-75
2022/10/10 02:35:06;;;;;;;3.13;1.45;;;9.50;99.90;;;;;;5006555;28;20590;-75
2022/10/10 02:37:31;;;;;;;3.65;1.58;;;9.50;99.90;;;;;;5006001;28;20138;-75
2022/10/10 02:39:58;;;;;;;1.63;1.30;;;9.50;99.90;;;;;;4990703;28;20029;-75
2022/10/10 02:42:23;;;;;;;7.63;1.92;;;9.50;99.90;;;;;;5006610;28;20436;-75
2022/10/10 02:44:49;;;;;;;1.70;1.15;;;9.50;99.90;;;;;;4991058;28;20034;-75
2022/10/10 02:47:15;;;;;;;4.30;1.70;;;9.50;99.90;;;;;;5006410;28;20044;-75
2022/10/10 02:49:41;;;;;;;1.60;1.42;;;9.50;99.90;;;;;;5022737;28;20390;-75
2022/10/10 02:52:06;;;;;;;3.58;1.70;;;9.40;99.90;;;;;;4981901;28;20026;-75
2022/10/10 02:54:32;;;;;;;3.15;1.67;;;9.40;99.90;;;;;;5023052;28;20033;-75
2022/10/10 02:56:57;;;;;;;5.28;1.83;;;9.40;99.90;;;;;;5021188;28;20300;-75
2022/10/10 02:59:23;;;;;;;3.70;2.17;;;9.40;99.90;;;;;;5008117;28;20030;-75
2022/10/10 03:01:48;;;;;;;1.70;1.58;;;9.50;99.90;;;;;;5004300;28;20049;-76
2022/10/10 03:04:14;;;;;;;3.08;1.70;;;9.40;99.90;;;;;;5022550;28;20036;-76
2022/10/10 03:06:41;;;;;;;2.03;1.45;;;9.40;99.90;;;;;;5023669;28;20538;-75
2022/10/10 03:09:06;;;;;;;4.20;1.42;;;9.40;99.90;;;;;;5006333;28;20117;-75
2022/10/10 03:11:32;;;;;;;5.35;1.67;;;9.50;99.90;;;;;;5005771;28;20376;-75
2022/10/10 03:13:57;;;;;;;1.85;1.40;;;9.40;99.90;;;;;;5006443;28;20424;-75
2022/10/10 03:16:23;;;;;;;3.47;1.50;;;9.40;99.90;;;;;;5007607;28;20221;-76
2022/10/10 03:18:48;;;;;;;2.53;1.50;;;9.50;99.90;;;;;;5006387;28;20029;-75
2022/10/10 03:21:14;;;;;;;2.33;1.73;;;9.40;99.90;;;;;;5005696;28;20036;-76
2022/10/10 03:23:40;;;;;;;2.05;1.60;;;9.50;99.90;;;;;;5021464;28;20499;-75
2022/10/10 03:26:05;;;;;;;4.82;1.65;;;9.50;99.90;;;;;;5007596;28;20083;-75
2022/10/10 03:28:31;;;;;;;2.70;1.88;;;9.60;99.90;;;;;;5005772;28;20132;-75
2022/10/10 03:30:56;;;;;;;2.60;1.77;;;9.50;99.90;;;;;;5005840;28;20033;-75
2022/10/10 03:33:22;;;;;;;4.75;1.90;;;9.50;99.90;;;;;;4990889;28;20025;-75
2022/10/10 03:35:48;;;;;;;4.78;1.95;;;9.50;99.90;;;;;;5022593;28;20583;-75
2022/10/10 03:38:13;;;;;;;2.58;2.10;;;9.50;99.90;;;;;;5006012;28;20033;-75
2022/10/10 03:40:39;;;;;;;4.97;1.50;;;9.40;99.90;;;;;;5005603;28;20029;-76
2022/10/10 03:43:06;;;;;;;2.30;1.70;;;9.50;99.90;;;;;;5022118;28;20040;-76
2022/10/10 03:45:31;;;;;;;5.00;1.77;;;9.50;99.90;;;;;;5023017;28;20041;-75
2022/10/10 03:47:57;;;;;;;5.65;2.05;;;9.50;99.90;;;;;;5020932;28;20033;-75
2022/10/10 03:50:22;;;;;;;2.47;1.70;;;9.50;99.90;;;;;;5005957;28;20034;-75
2022/10/10 03:52:48;;;;;;;4.55;2.08;;;9.50;99.90;;;;;;5004982;28;20029;-75
2022/10/10 03:55:13;;;;;;;6.60;2.25;;;9.50;99.90;;;;;;5022207;28;20033;-75
2022/10/10 03:57:39;;;;;;;3.70;1.55;;;9.50;99.90;;;;;;5019264;28;20388;-75
2022/10/10 04:00:05;;;;;;;2.78;2.05;;;9.40;99.90;;;;;;4989216;28;20609;-75
2022/10/10 04:02:30;;;;;;;3.33;1.90;;;9.40;99.90;;;;;;5004761;28;20038;-75
2022/10/10 04:04:56;;;;;;;4.47;1.85;;;9.50;99.90;;;;;;5004026;28;20113;-75
2022/10/10 04:07:21;;;;;;;5.75;2.17;;;9.50;99.90;;;;;;5024173;28;20063;-75
2022/10/10 04:09:47;;;;;;;3.72;1.80;;;9.50;99.90;;;;;;5022961;28;20698;-75
2022/10/10 04:12:12;;;;;;;2.78;1.83;;;9.50;99.90;;;;;;5006223;28;20021;-75
2022/10/10 04:14:38;;;;;;;4.32;2.45;;;9.50;99.90;;;;;;5006494;28;20036;-75
2022/10/10 04:17:03;;;;;;;4.55;1.77;;;9.60;99.90;;;;;;5006619;28;20030;-75
2022/10/10 04:19:29;;;;;;;5.22;1.77;;;9.50;99.90;;;;;;5022579;28;20026;-75
2022/10/10 04:21:54;;;;;;;2.70;1.90;;;9.60;99.90;;;;;;5023233;28;20125;-75
2022/10/10 04:24:20;;;;;;;4.43;1.60;;;9.50;99.90;;;;;;5022777;28;20116;-75
2022/10/10 04:26:45;;;;;;;3.45;1.60;;;9.60;99.90;;;;;;5024076;28;20071;-75
2022/10/10 04:29:11;;;;;;;5.45;1.92;;;9.60;99.90;;;;;;5022668;28;20034;-75
2022/10/10 04:31:36;;;;;;;5.35;1.85;;;9.60;99.90;;;;;;4998600;28;20030;-75
2022/10/10 04:34:02;;;;;;;5.63;2.60;;;9.60;99.90;;;;;;4989944;28;20060;-75
2022/10/10 04:36:27;;;;;;;3.80;1.60;;;9.60;99.90;;;;;;5022438;28;20049;-75
2022/10/10 04:38:53;;;;;;;4.22;1.90;;;9.60;99.90;;;;;;5023699;28;20434;-75
2022/10/10 04:41:18;;;;;;;6.22;2.33;;;9.60;99.90;;;;;;5008116;28;20044;-75
2022/10/10 04:43:44;;;;;;;5.05;2.17;;;9.60;99.90;;;;;;5026381;28;20341;-75
2022/10/10 04:46:09;;;;;;;4.88;2.15;;;9.60;99.90;;;;;;5025912;28;20037;-75
2022/10/10 04:48:35;;;;;;;5.00;2.13;;;9.60;99.90;;;;;;5025950;28;20437;-75
2022/10/10 04:51:01;;;;;;;4.43;2.38;;;9.60;99.90;;;;;;5008635;28;20768;-75
2022/10/10 04:53:26;;;;;;;2.70;2.05;;;9.60;99.90;;;;;;5025147;28;20215;-75
2022/10/10 04:55:52;;;;;;;3.35;1.80;;;9.50;99.90;;;;;;4992635;28;20187;-75
2022/10/10 04:58:18;;;;;;;2.55;1.77;;;9.50;99.90;;;;;;5025519;28;20045;-74
2022/10/10 05:00:43;;;;;;;5.30;2.40;;;9.50;99.90;;;;;;5008444;28;20463;-75
2022/10/10 05:03:11;;;;;;;5.13;2.10;;;9.50;99.90;;;;;;5025756;28;20034;-75
2022/10/10 05:05:37;;;;;;;7.10;3.25;;;9.50;99.90;;;;;;5008309;28;20103;-75
2022/10/10 05:08:02;;;;;;;4.70;2.60;;;9.40;99.90;;;;;;4993054;28;20079;-74
2022/10/10 05:10:28;;;;;;;4.47;1.75;;;9.50;99.90;;;;;;5025047;28;20120;-75
2022/10/10 05:12:53;;;;;;;4.25;2.22;;;9.50;99.90;;;;;;5026226;28;20038;-76
2022/10/10 05:15:20;;;;;;;3.53;2.08;;;9.50;99.90;;;;;;5026118;28;20044;-75
2022/10/10 05:17:46;;;;;;;8.65;3.65;;;9.40;99.90;;;;;;5008495;28;20467;-75
2022/10/10 05:20:11;;;;;;;3.88;1.92;;;9.40;99.90;;;;;;5008787;28;20042;-75
2022/10/10 05:22:37;;;;;;;8.68;1.98;;;9.40;99.90;;;;;;4991729;28;20572;-75
2022/10/10 05:25:03;;;;;;;4.03;2.10;;;9.40;99.90;;;;;;5009591;28;20383;-75
2022/10/10 05:27:28;;;;;;;4.10;2.22;;;9.40;99.90;;;;;;5011052;28;20048;-75
2022/10/10 05:29:54;;;;;;;7.40;2.47;;;9.30;99.90;;;;;;5025785;28;20042;-76
2022/10/10 05:32:20;;;;;;;6.30;2.70;;;9.30;99.90;;;;;;5008939;28;20017;-76
2022/10/10 05:34:46;;;;;;;4.75;2.80;;;9.30;99.90;;;;;;5009440;28;20038;-75
2022/10/10 05:37:11;;;;;;;4.28;2.90;;;9.30;99.90;;;;;;5025787;28;20099;-75
2022/10/10 05:39:37;;;;;;;5.40;2.40;;;9.30;99.90;;;;;;5026354;28;20034;-75
2022/10/10 05:42:03;;;;;;;2.25;1.70;;;9.20;99.90;;;;;;5025498;28;20175;-75
2022/10/10 05:44:29;;;;;;;6.30;2.35;;;9.20;99.90;;;;;;5008441;28;20030;-75
2022/10/10 05:46:54;;;;;;;6.78;2.53;;;9.20;99.90;;;;;;4993022;28;20029;-75
2022/10/10 05:49:20;;;;;;;3.63;1.95;;;9.30;99.90;;;;;;5025609;28;20050;-75
2022/10/10 05:51:46;;;;;;;3.83;2.30;;;9.20;99.90;;;;;;5024383;28;20342;-76
2022/10/10 05:54:11;;;;;;;5.38;2.33;;;9.20;99.90;;;;;;5008566;28;20580;-76
2022/10/10 05:56:37;;;;;;;3.65;1.77;;;9.30;99.90;;;;;;5024200;28;20080;-76
2022/10/10 05:59:02;;;;;;;4.03;2.13;;;9.30;99.90;;;;;;4991879;28;20515;-75
2022/10/10 06:01:28;;;;;;;5.30;2.55;;;9.40;99.90;;;;;;5007226;28;20436;-77
2022/10/10 06:03:54;;;;;;;6.68;2.70;;;9.30;99.90;;;;;;5008414;28;20484;-76
2022/10/10 06:06:21;;;;;;;3.25;2.33;;;9.30;99.90;;;;;;5007671;28;20033;-76
2022/10/10 06:08:47;;;;;;;3.85;2.63;;;9.20;99.90;;;;;;5023879;28;20042;-76
2022/10/10 06:11:14;;;;;;;6.75;2.58;;;9.30;99.90;;;;;;5003781;28;20041;-76
2022/10/10 06:13:40;;;;;;;8.77;2.80;;;9.30;99.90;;;;;;5012378;28;20437;-77
2022/10/10 06:16:06;;;;;;;6.15;2.33;;;9.30;99.90;;;;;;5041659;28;20129;-76
2022/10/10 06:18:31;;;;;;;4.85;2.83;;;9.30;99.90;;;;;;5023053;28;20118;-76
2022/10/10 06:21:03;;;;;;;8.90;3.03;;;9.40;99.90;;;;;;5021924;28;20033;-76
2022/10/10 06:23:29;;;;;;;4.40;2.00;;;9.40;99.90;;;;;;5005591;28;20393;-74
2022/10/10 06:25:54;;;;;;;4.63;2.67;;;9.40;99.90;;;;;;5025078;28;20117;-75
2022/10/10 06:28:20;;;;;;;5.78;3.13;;;9.50;99.90;;;;;;5006519;28;20037;-75
2022/10/10 06:30:47;;;;;;;7.63;3.20;;;9.50;99.90;;;;;;5023549;28;20033;-75
2022/10/10 06:33:14;;;;;;;6.70;2.70;;;9.50;99.90;;;;;;5007954;28;20553;-74
2022/10/10 06:35:42;;;;;;;7.43;2.60;;;9.70;99.90;;;;;;5025293;28;20389;-75
2022/10/10 06:38:08;;;;;;;5.20;2.55;;;9.80;99.90;;;;;;5007671;28;20037;-75
2022/10/10 06:40:34;;;;;;;5.57;2.67;;;9.90;99.90;;;;;;4990815;28;20378;-76
2022/10/10 06:42:59;;;;;;;2.75;2.30;;;10.00;99.90;;;;;;5006867;28;20103;-76
2022/10/10 06:45:25;;;;;;;4.72;2.15;;;9.90;99.90;;;;;;5007589;28;20036;-76
2022/10/10 06:47:50;;;;;;;7.10;3.15;;;10.10;99.90;;;;;;5006984;28;20109;-76
2022/10/10 06:50:16;;;;;;;10.60;4.03;;;10.10;99.90;;;;;;5023715;28;20086;-77
2022/10/10 06:52:42;;;;;;;4.20;2.25;;;10.20;99.90;;;;;;5006283;28;20057;-76
2022/10/10 06:55:08;;;;;;;5.18;2.72;;;10.30;99.90;;;;;;5006921;28;20060;-77
2022/10/10 06:57:33;;;;;;;4.82;2.75;;;10.40;99.90;;;;;;5006969;28;20378;-77
2022/10/10 06:59:59;;;;;;;5.65;3.00;;;10.50;99.90;;;;;;5007203;28;20037;-76
2022/10/10 07:02:26;;;;;;;5.82;2.40;;;10.60;99.90;;;;;;5006962;28;20041;-76
2022/10/10 07:04:51;;;;;;;4.03;2.33;;;10.70;99.90;;;;;;5023886;28;20029;-76
2022/10/10 07:07:17;;;;;;;4.22;2.42;;;10.80;99.90;;;;;;5021999;28;20046;-76
2022/10/10 07:09:42;;;;;;;3.90;2.58;;;11.00;99.90;;;;;;5006948;28;20033;-76
2022/10/10 07:12:09;;;;;;;6.05;2.65;;;11.00;99.90;;;;;;4990132;28;20041;-76
2022/10/10 07:14:34;;;;;;;4.18;2.20;;;11.20;99.90;;;;;;5023115;28;20046;-76
2022/10/10 07:17:00;;;;;;;3.47;2.28;;;11.40;99.90;;;;;;5006657;28;20122;-76
2022/10/10 07:19:26;;;;;;;5.80;2.65;;;11.50;99.90;;;;;;5007460;28;20494;-76
2022/10/10 07:21:52;;;;;;;5.18;3.30;;;11.50;99.90;;;;;;5022182;28;20040;-77
2022/10/10 07:24:17;;;;;;;4.40;2.58;;;11.50;99.90;;;;;;4989894;28;20652;-76
2022/10/10 07:26:43;;;;;;;6.68;2.83;;;11.60;99.90;;;;;;5024233;28;20022;-76
2022/10/10 07:29:08;;;;;;;5.53;2.67;;;11.80;99.90;;;;;;5006927;28;20067;-77
2022/10/10 07:31:34;;;;;;;6.85;3.38;;;11.90;99.90;;;;;;5021122;28;20114;-77
2022/10/10 07:34:00;;;;;;;4.18;2.33;;;12.00;99.90;;;;;;5022719;28;20032;-77
2022/10/10 07:36:25;;;;;;;8.23;2.75;;;12.30;99.90;;;;;;5001483;28;20033;-76
2022/10/10 07:38:51;;;;;;;6.55;2.75;;;12.50;99.90;;;;;;5022510;28;20144;-76
2022/10/10 07:41:17;;;;;;;5.90;2.70;;;12.60;99.90;;;;;;5005799;28;20068;-76
2022/10/10 07:43:42;;;;;;;3.42;2.30;;;12.70;99.90;;;;;;4989768;28;20053;-76
2022/10/10 07:46:15;;;;;;;5.07;2.55;;;12.80;99.90;;;;;;5022773;28;20034;-76
2022/10/10 07:48:42;;;;;;;5.15;2.13;;;13.00;99.90;;;;;;5005434;28;20025;-76
2022/10/10 07:51:08;;;;;;;4.40;2.50;;;13.20;99.90;;;;;;4988588;28;20091;-75
2022/10/10 07:53:33;;;;;;;5.43;2.97;;;13.50;99.90;;;;;;5006094;28;20033;-76
2022/10/10 07:55:59;;;;;;;5.47;2.97;;;13.60;99.90;;;;;;5018591;28;20049;-76
2022/10/10 07:58:24;;;;;;;3.05;2.10;;;13.70;99.90;;;;;;5004544;28;20041;-76
2022/10/10 08:00:50;;;;;;;10.43;3.05;;;13.80;99.90;;;;;;5017516;28;20026;-75
2022/10/10 08:03:16;;;;;;;5.63;2.53;;;13.80;99.90;;;;;;4989590;28;20103;-75
2022/10/10 08:05:43;;;;;;;6.68;2.58;;;13.70;99.90;;;;;;4988635;28;20094;-76
2022/10/10 08:08:09;;;;;;;6.85;2.60;;;13.90;99.90;;;;;;4989709;28;20500;-74
2022/10/10 08:10:35;;;;;;;5.38;2.80;;;14.10;99.90;;;;;;5021518;28;20053;-74
2022/10/10 08:13:00;;;;;;;7.10;2.55;;;14.00;99.90;;;;;;5023572;28;20120;-74
2022/10/10 08:15:26;;;;;;;6.53;2.72;;;14.10;99.90;;;;;;4992334;28;20032;-74
2022/10/10 08:17:51;;;;;;;8.05;2.65;;;14.20;99.90;;;;;;5008803;28;20485;-74
2022/10/10 08:20:17;;;;;;;6.75;2.85;;;14.40;99.90;;;;;;5024907;28;20030;-75
2022/10/10 08:22:42;;;;;;;7.55;2.50;;;14.50;99.90;;;;;;5008513;28;20388;-74
2022/10/10 08:25:08;;;;;;;3.90;2.50;;;14.50;99.90;;;;;;5009914;28;20045;-74
2022/10/10 08:27:34;;;;;;;11.07;3.33;;;14.50;99.90;;;;;;5010760;28;20029;-74
2022/10/10 08:29:59;;;;;;;3.38;2.00;;;14.80;99.90;;;;;;4992397;28;20064;-74
2022/10/10 08:32:25;;;;;;;12.15;3.30;;;15.00;99.90;;;;;;5008333;28;20546;-74
2022/10/10 08:34:50;;;;;;;11.55;2.95;;;14.90;99.90;;;;;;5009112;28;20112;-75
2022/10/10 08:37:16;;;;;;;6.85;2.60;;;15.00;99.90;;;;;;4991249;28;20053;-74
2022/10/10 08:39:41;;;;;;;4.47;2.40;;;15.30;99.90;;;;;;5008902;28;20521;-75
2022/10/10 08:42:13;;;;;;;8.32;2.75;;;15.60;99.90;;;;;;5026277;28;20392;-74
2022/10/10 08:44:43;;;;;;;9.40;3.28;;;15.40;99.90;;;;;;5025676;28;20026;-74
2022/10/10 08:47:08;;;;;;;4.47;2.33;;;15.70;99.90;;;;;;5025826;28;20056;-75
2022/10/10 08:49:41;;;;;;;5.63;2.25;;;16.00;99.90;;;;;;5026935;28;20053;-75
2022/10/10 08:52:32;;;;;;;5.20;2.38;;;15.90;99.90;;;;;;5025467;28;20124;-75
2022/10/10 08:55:00;;;;;;;6.18;2.08;;;16.10;99.90;;;;;;5008477;28;20025;-74
2022/10/10 08:57:28;;;;;;;12.38;2.33;;;16.30;99.90;;;;;;5007792;28;20314;-75
2022/10/10 09:00:04;;;;;;;2.13;1.40;;;16.40;99.90;;;;;;5025105;28;20111;-75
2022/10/10 09:02:33;;;;;;;3.88;2.38;;;16.50;99.90;;;;;;5008743;28;20765;-75
2022/10/10 09:04:58;;;;;;;7.82;2.47;;;16.70;99.90;;;;;;5024676;28;20037;-74
2022/10/10 09:07:36;;;;;;;7.03;2.55;;;16.90;99.90;;;;;;5008075;28;20033;-76
2022/10/10 09:10:10;;;;;;;3.45;2.60;;;16.80;99.90;;;;;;5006614;28;20118;-75
2022/10/10 09:12:41;;;;;;;4.75;2.28;;;17.00;99.90;;;;;;5023993;28;20112;-74
2022/10/10 09:15:24;;;;;;;6.60;2.00;;;17.10;99.90;;;;;;5008630;28;20504;-75
2022/10/10 09:18:01;;;;;;;5.68;2.22;;;17.30;99.90;;;;;;5024113;28;20026;-74
2022/10/10 09:20:50;;;;;;;4.03;2.22;;;17.30;99.90;;;;;;5023812;28;20033;-76
2022/10/10 09:23:22;;;;;;;5.55;2.63;;;17.60;99.90;;;;;;5007680;28;20041;-74
2022/10/10 09:25:52;;;;;;;4.63;1.90;;;17.70;99.90;;;;;;5024524;28;20111;-75
2022/10/10 09:28:18;;;;;;;9.77;2.63;;;17.80;99.90;;;;;;5009068;28;20028;-75
2022/10/10 09:30:50;;;;;;;4.05;2.30;;;18.20;99.90;;;;;;5022177;28;20496;-75
2022/10/10 09:33:31;;;;;;;4.47;2.08;;;18.20;99.90;;;;;;5006850;28;20029;-76
2022/10/10 09:35:56;;;;;;;5.35;2.20;;;18.40;99.90;;;;;;5024622;28;20041;-75
2022/10/10 09:38:49;;;;;;;5.55;2.30;;;18.50;99.90;;;;;;5007629;28;20072;-76
2022/10/10 09:41:35;;;;;;;9.90;2.00;;;18.70;99.90;;;;;;5024290;28;20512;-76
2022/10/10 09:44:04;;;;;;;5.07;2.28;;;18.70;99.90;;;;;;5024669;28;20037;-76
2022/10/10 09:46:30;;;;;;;8.40;2.42;;;18.90;98.90;;;;;;5007828;28;20037;-76
2022/10/10 09:48:55;;;;;;;7.00;2.13;;;19.30;98.00;;;;;;5007169;28;20477;-76
2022/10/10 09:51:21;;;;;;;4.93;2.60;;;19.40;98.10;;;;;;5007636;28;20056;-76
2022/10/10 09:53:47;;;;;;;7.25;2.30;;;19.40;98.20;;;;;;5010032;28;20047;-77
2022/10/10 09:56:30;;;;;;;7.72;1.90;;;19.60;98.10;;;;;;5008180;28;20033;-77
2022/10/10 09:58:56;;;;;;;7.47;1.90;;;19.80;97.30;;;;;;5009099;28;20025;-77
2022/10/10 10:01:25;;;;;;;7.25;1.98;;;20.00;96.60;;;;;;4990517;28;20413;-77
2022/10/10 10:04:12;;;;;;;5.45;2.50;;;20.10;96.40;;;;;;5024205;28;20041;-77
2022/10/10 10:06:41;;;;;;;6.30;2.85;;;20.10;96.80;;;;;;5025918;28;20040;-79
2022/10/10 10:09:13;;;;;;;4.47;1.88;;;20.30;97.10;;;;;;4992557;28;20044;-77
2022/10/10 10:11:38;;;;;;;7.35;2.10;;;20.70;95.30;;;;;;5007890;28;20130;-78
2022/10/10 10:14:04;;;;;;;3.80;1.35;;;20.50;94.10;;;;;;5007643;28;20053;-79
2022/10/10 10:16:37;;;;;;;9.80;2.25;;;20.70;93.60;;;;;;5005028;28;20037;-78
2022/10/10 10:19:03;;;;;;;8.88;2.40;;;20.60;93.70;;;;;;5005896;28;20034;-78
2022/10/10 10:21:29;;;;;;;16.83;2.10;;;20.40;93.20;;;;;;5006575;28;20026;-78
2022/10/10 10:24:01;;;;;;;4.50;1.73;;;20.30;94.40;;;;;;5024357;28;20037;-79
2022/10/10 10:26:45;;;;;;;7.97;1.98;;;20.10;94.90;;;;;;5008552;28;20079;-79
2022/10/10 10:29:23;;;;;;;10.13;2.72;;;20.40;94.00;;;;;;5024906;28;20053;-79
2022/10/10 10:31:55;;;;;;;5.32;2.10;;;20.10;94.20;;;;;;5025347;28;20448;-78
2022/10/10 10:34:42;;;;;;;4.88;2.38;;;20.10;94.00;;;;;;5002480;28;20400;-79
2022/10/10 10:37:35;;;;;;;5.38;2.25;;;19.90;94.20;;;;;;5024105;28;20025;-78
2022/10/10 10:40:33;;;;;;;10.77;1.98;;;19.90;93.60;;;;;;5017959;28;20112;-79
2022/10/10 10:43:29;;;;;;;8.75;2.97;;;19.90;93.70;;;;;;5006940;28;20145;-79
2022/10/10 10:45:59;;;;;;;6.63;2.35;;;19.90;93.80;;;;;;5025473;28;20032;-79
2022/10/10 10:48:31;;;;;;;4.95;1.75;;;20.30;94.20;;;;;;5022951;28;20060;-79
2022/10/10 10:51:23;;;;;;;7.80;1.88;;;20.10;94.40;;;;;;5007823;28;20152;-80
2022/10/10 10:54:01;;;;;;;6.35;2.20;;;20.20;94.90;;;;;;5016800;28;20042;-79
2022/10/10 10:56:33;;;;;;;8.35;2.45;;;20.00;94.90;;;;;;5008805;28;20033;-79
2022/10/10 10:59:34;;;;;;;4.65;1.80;;;20.50;94.00;;;;;;5024123;28;20043;-79
2022/10/10 11:02:05;;;;;;;7.25;2.10;;;20.40;94.70;;;;;;5021181;28;20040;-79
2022/10/10 11:04:46;;;;;;;10.95;1.92;;;20.70;94.30;;;;;;5022219;28;20045;-76
2022/10/10 11:07:15;;;;;;;3.65;1.70;;;20.70;94.50;;;;;;5006966;28;20433;-76
2022/10/10 11:10:11;;;;;;;11.48;2.13;;;20.50;94.90;;;;;;4990521;28;20021;-77
2022/10/10 11:12:45;;;;;;;5.90;1.73;;;20.60;94.10;;;;;;5015719;28;20037;-77
2022/10/10 11:15:32;;;;;;;2.67;1.45;;;20.70;93.40;;;;;;5020623;28;20386;-76
2022/10/10 11:18:02;;;;;;;7.15;1.48;;;20.60;94.60;;;;;;5018539;28;20091;-77
2022/10/10 11:20:52;;;;;;;4.82;1.73;;;20.60;94.30;;;;;;4990209;28;20029;-79
2022/10/10 11:23:34;;;;;;;8.35;2.08;;;20.50;94.70;;;;;;5019598;28;20037;-79
2022/10/10 11:26:09;;;;;;;3.35;1.35;;;20.60;94.20;;;;;;5007038;28;20037;-79
2022/10/10 11:28:39;;;;;;;8.23;2.92;;;20.70;94.20;;;;;;5008081;28;20033;-79
2022/10/10 11:31:45;;;;;;;3.88;2.05;;;21.10;93.00;;;;;;5005854;28;20229;-77
2022/10/10 11:34:32;;;;;;;5.72;2.30;;;21.10;93.60;;;;;;5023477;28;20040;-77
2022/10/10 11:37:04;;;;;;;7.63;2.05;;;21.10;93.90;;;;;;5009369;28;20065;-77
2022/10/10 11:39:33;;;;;;;9.63;2.10;;;21.10;93.40;;;;;;4990440;28;20029;-78
2022/10/10 11:42:05;;;;;;;7.10;2.10;;;21.10;93.50;;;;;;4985577;28;20758;-78
2022/10/10 11:44:37;;;;;;;10.82;2.47;;;21.30;93.00;;;;;;5021788;28;20025;-78
2022/10/10 11:47:18;;;;;;;7.75;1.88;;;21.30;92.30;;;;;;5019445;28;20119;-79
2022/10/10 11:50:02;;;;;;;11.55;2.70;;;21.30;92.10;;;;;;5008022;28;20080;-79
2022/10/10 11:52:47;;;;;;;3.30;1.83;;;21.30;93.10;;;;;;4988395;28;20685;-78
2022/10/10 11:55:39;;;;;;;12.32;3.40;;;21.30;91.60;;;;;;5023439;28;20393;-78
2022/10/10 11:58:04;;;;;;;11.55;2.30;;;21.30;92.50;;;;;;5022728;28;20041;-78
2022/10/10 12:00:33;;;;;;;6.15;2.17;;;21.40;92.20;;;;;;5022374;28;20080;-78
2022/10/10 12:02:58;;;;;;;6.18;2.85;;;21.50;91.90;;;;;;5003775;28;20048;-79
2022/10/10 12:05:26;;;;;;;9.57;2.22;;;21.40;91.80;;;;;;5022163;28;20401;-78
2022/10/10 12:08:14;;;;;;;11.00;1.88;;;21.40;91.70;;;;;;4989112;28;20037;-78
2022/10/10 12:10:53;;;;;;;7.82;2.22;;;21.40;91.50;;;;;;5006443;28;20104;-78
2022/10/10 12:13:24;;;;;;;11.60;3.45;;;21.40;91.40;;;;;;4991243;28;20041;-79
2022/10/10 12:15:51;;;;;;;8.88;2.38;;;21.50;92.00;;;;;;5005753;28;20052;-79
2022/10/10 12:18:31;;;;;;;5.88;2.20;;;21.50;95.30;;;;;;5007050;28;20033;-79
2022/10/10 12:21:10;;;;;;;7.45;2.53;;;21.50;93.70;;;;;;5006811;28;20484;-78
2022/10/10 12:23:35;;;;;;;6.68;2.05;;;21.60;93.50;;;;;;4990077;28;20413;-79
2022/10/10 12:26:01;;;;;;;7.25;2.17;;;21.60;92.70;;;;;;4992241;28;20025;-78
2022/10/10 12:28:55;;;;;;;3.92;2.00;;;21.60;93.80;;;;;;5023183;28;20388;-78
2022/10/10 12:31:30;;;;;;;4.28;2.08;;;21.60;94.80;;;;;;5006060;28;20455;-79
2022/10/10 12:34:03;;;;;;;9.97;2.23;;;21.50;92.10;;;;;;5022999;28;20113;-78
2022/10/10 12:36:28;;;;;;;5.90;1.95;;;21.50;92.40;;;;;;5006643;28;20033;-78
2022/10/10 12:39:00;;;;;;;6.70;2.40;;;21.40;92.10;;;;;;5022459;28;20388;-78
2022/10/10 12:41:47;;;;;;;11.05;2.72;;;21.40;92.10;;;;;;5021392;28;20120;-78
2022/10/10 12:44:34;;;;;;;6.88;2.42;;;21.60;92.80;;;;;;5015469;28;20111;-78
2022/10/10 12:47:14;;;;;;;6.32;2.50;;;21.70;94.20;;;;;;5021785;28;20508;-78
2022/10/10 12:49:58;;;;;;;7.55;1.70;;;21.70;92.70;;;;;;5021756;28;20040;-78
2022/10/10 12:52:34;;;;;;;7.05;1.77;;;21.60;95.00;;;;;;5006497;28;20057;-79
2022/10/10 12:55:08;;;;;;;7.53;2.28;;;21.60;92.30;;;;;;5022435;28;20026;-78
2022/10/10 12:57:41;;;;;;;5.40;2.10;;;21.50;92.20;;;;;;4987804;28;20052;-78
2022/10/10 13:00:15;;;;;;;8.43;2.78;;;21.40;92.30;;;;;;4991724;28;20044;-78
2022/10/10 13:02:54;;;;;;;6.10;2.38;;;21.50;92.60;;;;;;4989178;28;20495;-78
2022/10/10 13:05:32;;;;;;;9.85;2.58;;;21.60;92.60;;;;;;5009352;28;20485;-78